createdAt,value
2017-05-01T00:00:44.697Z,0
2017-05-01T00:01:33.186Z,0
2017-05-01T00:02:21.908Z,0
2017-05-01T00:03:10.283Z,0
2017-05-01T00:03:58.738Z,0
2017-05-01T00:04:47.708Z,0
2017-05-01T00:05:35.787Z,0
2017-05-01T00:06:24.429Z,0
2017-05-01T00:07:13.238Z,0
2017-05-01T00:08:01.757Z,0
2017-05-01T00:08:50.731Z,0
2017-05-01T00:09:38.893Z,0
2017-05-01T00:10:27.706Z,0
2017-05-01T00:11:16.326Z,0
2017-05-01T00:12:05.350Z,0
2017-05-01T00:12:53.685Z,0
2017-05-01T00:13:42.225Z,0
2017-05-01T00:14:30.824Z,0
2017-05-01T00:15:19.315Z,0
2017-05-01T00:16:08.213Z,0
2017-05-01T00:16:56.758Z,0
2017-05-01T00:53:17.242Z,0
2017-05-01T00:54:05.882Z,0
2017-05-01T00:54:55.045Z,0
2017-05-01T00:55:44.595Z,0
2017-05-01T00:56:33.684Z,0
2017-05-01T00:57:22.996Z,0
2017-05-01T00:58:13.797Z,0
2017-05-01T00:59:02.666Z,0
2017-05-01T00:59:51.410Z,0
2017-05-01T01:00:39.987Z,0
2017-05-01T01:01:28.306Z,0
2017-05-01T01:02:17.159Z,0
2017-05-01T01:06:49.573Z,0
2017-05-01T01:09:50.656Z,0
2017-05-01T01:10:40.472Z,0
2017-05-01T01:11:29.319Z,0
2017-05-01T01:12:17.381Z,0
2017-05-01T01:13:06.046Z,0
2017-05-01T01:17:04.632Z,0
2017-05-01T01:17:53.852Z,0
2017-05-01T01:18:43.275Z,0
2017-05-01T01:19:32.677Z,0
2017-05-01T01:20:21.555Z,0
2017-05-01T01:25:55.692Z,0
2017-05-01T01:26:43.890Z,0
2017-05-01T01:27:33.706Z,0
2017-05-01T01:28:22.944Z,0
2017-05-01T01:29:12.435Z,0
2017-05-01T01:30:00.983Z,0
2017-05-01T01:30:49.289Z,0
2017-05-01T01:31:37.913Z,0
2017-05-01T01:32:27.750Z,0
2017-05-01T01:33:15.992Z,0
2017-05-01T01:34:05.122Z,0
2017-05-01T01:34:53.495Z,0
2017-05-01T01:35:42.349Z,0
2017-05-01T01:36:30.562Z,0
2017-05-01T01:37:19.411Z,0
2017-05-01T01:42:09.707Z,0
2017-05-01T01:42:58.442Z,0
2017-05-01T01:43:47.030Z,0
2017-05-01T01:44:35.832Z,0
2017-05-01T01:45:24.602Z,0
2017-05-01T01:46:13.327Z,0
2017-05-01T01:47:01.770Z,0
2017-05-01T01:47:50.417Z,0
2017-05-01T01:48:39.228Z,0
2017-05-01T01:49:27.255Z,0
2017-05-01T01:51:12.512Z,0
2017-05-01T01:52:03.728Z,0
2017-05-01T01:52:52.021Z,0
2017-05-01T01:53:39.274Z,0
2017-05-01T01:58:09.342Z,0
2017-05-01T01:58:58.060Z,0
2017-05-01T01:59:46.516Z,0
2017-05-01T02:00:35.347Z,0
2017-05-01T02:01:25.134Z,0
2017-05-01T02:02:12.976Z,0
2017-05-01T02:03:01.629Z,0
2017-05-01T02:03:50.176Z,0
2017-05-01T02:04:38.616Z,0
2017-05-01T02:05:27.495Z,0
2017-05-01T02:06:15.771Z,0
2017-05-01T02:08:50.696Z,0
2017-05-01T02:16:40.573Z,0
2017-05-01T02:17:28.985Z,0
2017-05-01T02:18:17.994Z,0
2017-05-01T02:19:06.311Z,0
2017-05-01T02:19:54.817Z,0
2017-05-01T02:20:43.481Z,0
2017-05-01T02:21:32.260Z,0
2017-05-01T02:22:21.151Z,0
2017-05-01T02:23:09.232Z,0
2017-05-01T02:23:57.819Z,0
2017-05-01T02:24:46.605Z,0
2017-05-01T02:25:35.587Z,0
2017-05-01T02:26:23.928Z,0
2017-05-01T02:27:12.730Z,0
2017-05-01T02:28:01.333Z,0
2017-05-01T02:28:50.238Z,0
2017-05-01T02:29:38.488Z,0
2017-05-01T02:30:27.287Z,0
2017-05-01T02:31:15.887Z,0
2017-05-01T02:32:04.435Z,0
2017-05-01T02:32:53.316Z,0
2017-05-01T02:33:42.078Z,0
2017-05-01T02:34:30.429Z,0
2017-05-01T02:35:19.198Z,0
2017-05-01T02:36:07.789Z,0
2017-05-01T02:36:56.643Z,0
2017-05-01T02:37:44.932Z,0
2017-05-01T02:38:33.750Z,0
2017-05-01T02:39:22.254Z,0
2017-05-01T02:40:10.651Z,0
2017-05-01T02:42:33.036Z,0
2017-05-01T02:43:21.651Z,0
2017-05-01T02:44:10.649Z,0
2017-05-01T02:46:57.117Z,0
2017-05-01T02:47:45.751Z,0
2017-05-01T02:48:34.516Z,0
2017-05-01T02:49:23.019Z,0
2017-05-01T02:50:11.639Z,0
2017-05-01T02:51:00.850Z,0
2017-05-01T02:51:49.115Z,0
2017-05-01T02:52:38.009Z,0
2017-05-01T02:53:26.073Z,0
2017-05-01T02:54:14.929Z,0
2017-05-01T02:55:03.489Z,0
2017-05-01T02:55:52.350Z,0
2017-05-01T02:56:40.996Z,0
2017-05-01T02:57:29.442Z,0
2017-05-01T02:58:17.947Z,0
2017-05-01T02:59:06.625Z,0
2017-05-01T02:59:55.460Z,0
2017-05-01T03:00:44.457Z,0
2017-05-01T03:01:32.905Z,0
2017-05-01T03:04:21.931Z,0
2017-05-01T03:05:10.235Z,0
2017-05-01T03:05:59.319Z,0
2017-05-01T03:06:47.724Z,0
2017-05-01T03:07:36.544Z,0
2017-05-01T03:08:24.740Z,0
2017-05-01T03:09:13.335Z,0
2017-05-01T03:10:02.064Z,0
2017-05-01T03:10:50.733Z,0
2017-05-01T03:11:39.198Z,0
2017-05-01T03:12:27.701Z,0
2017-05-01T03:13:16.859Z,0
2017-05-01T03:14:05.152Z,0
2017-05-01T03:14:53.797Z,0
2017-05-01T03:15:42.235Z,0
2017-05-01T03:16:31.381Z,0
2017-05-01T03:17:19.572Z,0
2017-05-01T03:18:08.071Z,0
2017-05-01T03:18:56.982Z,0
2017-05-01T03:19:45.939Z,0
2017-05-01T03:20:34.089Z,0
2017-05-01T03:21:22.751Z,0
2017-05-01T03:22:11.468Z,0
2017-05-01T03:23:00.395Z,0
2017-05-01T03:23:48.665Z,0
2017-05-01T03:24:37.740Z,0
2017-05-01T03:28:56.880Z,0
2017-05-01T04:03:42.300Z,10
2017-05-01T04:04:31.064Z,10
2017-05-01T04:05:19.137Z,10
2017-05-01T04:15:23.340Z,20
2017-05-01T04:16:12.159Z,20
2017-05-01T04:17:01.092Z,20
2017-05-01T04:48:50.749Z,120
2017-05-01T04:51:25.885Z,145
2017-05-01T04:52:14.750Z,150
2017-05-01T04:53:03.074Z,155
2017-05-01T06:01:53.211Z,310
2017-05-01T06:02:41.824Z,305
2017-05-01T06:03:30.694Z,295
2017-05-01T06:04:19.127Z,280
2017-05-01T06:05:08.763Z,255
2017-05-01T06:05:56.942Z,235
2017-05-01T06:06:45.760Z,225
2017-05-01T06:07:34.225Z,225
2017-05-01T06:08:22.730Z,230
2017-05-01T06:09:11.600Z,225
2017-05-01T06:14:58.946Z,230
2017-05-01T06:15:47.774Z,220
2017-05-01T06:16:36.729Z,220
2017-05-01T06:17:24.995Z,235
2017-05-01T06:18:14.177Z,250
2017-05-01T06:19:02.344Z,265
2017-05-01T06:19:50.959Z,270
2017-05-01T06:20:39.612Z,260
2017-05-01T06:21:28.347Z,255
2017-05-01T06:22:17.678Z,255
2017-05-01T06:23:05.997Z,245
2017-05-01T06:23:55.881Z,215
2017-05-01T06:24:43.426Z,195
2017-05-01T06:25:32.581Z,180
2017-05-01T06:26:21.868Z,185
2017-05-01T06:34:18.154Z,135
2017-05-01T06:35:07.252Z,135
2017-05-01T06:35:55.843Z,135
2017-05-01T06:36:44.513Z,140
2017-05-01T06:37:33.483Z,140
2017-05-01T06:38:22.674Z,130
2017-05-01T06:39:11.081Z,125
2017-05-01T06:41:47.914Z,110
2017-05-01T06:42:36.241Z,105
2017-05-01T06:43:24.643Z,95
2017-05-01T06:44:15.831Z,85
2017-05-01T06:45:04.261Z,80
2017-05-01T06:45:53.198Z,75
2017-05-01T06:46:41.682Z,70
2017-05-01T06:47:30.071Z,70
2017-05-01T06:48:19.191Z,70
2017-05-01T06:49:07.643Z,70
2017-05-01T06:49:56.509Z,70
2017-05-01T06:50:44.870Z,75
2017-05-01T06:51:33.785Z,75
2017-05-01T06:52:22.206Z,75
2017-05-01T06:53:11.023Z,75
2017-05-01T06:53:59.522Z,85
2017-05-01T06:54:50.166Z,90
2017-05-01T06:55:39.267Z,85
2017-05-01T06:56:27.915Z,85
2017-05-01T06:57:16.736Z,85
2017-05-01T06:58:05.854Z,85
2017-05-01T06:58:54.176Z,85
2017-05-01T06:59:43.101Z,85
2017-05-01T07:00:31.648Z,80
2017-05-01T07:01:19.795Z,80
2017-05-01T07:02:08.338Z,85
2017-05-01T07:06:17.089Z,75
2017-05-01T07:07:05.950Z,75
2017-05-01T07:07:54.369Z,75
2017-05-01T07:08:43.381Z,80
2017-05-01T07:09:31.802Z,85
2017-05-01T07:10:20.595Z,85
2017-05-01T07:11:08.902Z,90
2017-05-01T07:11:57.456Z,95
2017-05-01T07:12:46.229Z,95
2017-05-01T07:13:36.799Z,95
2017-05-01T07:14:25.226Z,90
2017-05-01T07:15:14.152Z,100
2017-05-01T07:16:02.748Z,105
2017-05-01T07:16:51.124Z,100
2017-05-01T07:17:40.118Z,105
2017-05-01T07:18:28.455Z,110
2017-05-01T07:19:17.715Z,110
2017-05-01T07:20:06.105Z,115
2017-05-01T07:20:54.936Z,120
2017-05-01T07:37:14.956Z,185
2017-05-01T07:38:03.312Z,200
2017-05-01T07:45:30.145Z,210
2017-05-01T07:46:19.157Z,215
2017-05-01T07:47:07.597Z,235
2017-05-01T07:47:56.261Z,245
2017-05-01T07:48:44.578Z,225
2017-05-01T07:49:33.678Z,220
2017-05-01T07:50:22.231Z,230
2017-05-01T07:51:11.107Z,220
2017-05-01T07:53:37.167Z,180
2017-05-01T07:54:25.731Z,160
2017-05-01T07:55:14.770Z,165
2017-05-01T07:56:03.737Z,170
2017-05-01T07:56:52.837Z,195
2017-05-01T07:57:40.961Z,195
2017-05-01T07:58:29.699Z,170
2017-05-01T07:59:18.336Z,170
2017-05-01T08:00:07.133Z,215
2017-05-01T08:00:55.421Z,225
2017-05-01T08:01:44.007Z,215
2017-05-01T08:02:32.757Z,220
2017-05-01T08:03:21.384Z,245
2017-05-01T08:04:10.354Z,235
2017-05-01T08:04:58.932Z,200
2017-05-01T08:05:47.357Z,215
2017-05-01T08:06:36.250Z,245
2017-05-01T08:07:24.469Z,240
2017-05-01T08:08:13.568Z,250
2017-05-01T08:09:01.914Z,235
2017-05-01T08:09:50.468Z,215
2017-05-01T08:10:39.207Z,195
2017-05-01T08:11:28.114Z,185
2017-05-01T08:17:35.948Z,140
2017-05-01T08:18:24.545Z,145
2017-05-01T08:19:13.782Z,135
2017-05-01T08:20:02.783Z,195
2017-05-01T08:20:51.315Z,160
2017-05-01T08:21:40.503Z,175
2017-05-01T08:22:28.775Z,150
2017-05-01T08:23:17.763Z,150
2017-05-01T08:24:06.007Z,185
2017-05-01T08:24:54.718Z,195
2017-05-01T08:25:43.670Z,185
2017-05-01T08:26:32.071Z,160
2017-05-01T08:27:21.250Z,170
2017-05-01T08:28:09.655Z,170
2017-05-01T08:34:48.088Z,150
2017-05-01T08:35:36.346Z,130
2017-05-01T08:36:25.347Z,150
2017-05-01T08:37:13.949Z,150
2017-05-01T08:38:02.520Z,150
2017-05-01T08:38:51.301Z,185
2017-05-01T08:39:39.787Z,190
2017-05-01T08:40:28.750Z,190
2017-05-01T08:41:16.904Z,200
2017-05-01T08:42:05.718Z,210
2017-05-01T08:42:54.529Z,215
2017-05-01T08:43:43.037Z,200
2017-05-01T08:44:31.275Z,205
2017-05-01T08:45:22.395Z,205
2017-05-01T08:46:09.959Z,190
2017-05-01T08:46:58.671Z,205
2017-05-01T08:47:46.837Z,230
2017-05-01T08:48:35.656Z,220
2017-05-01T08:49:25.820Z,245
2017-05-01T08:50:15.403Z,265
2017-05-01T08:51:05.347Z,250
2017-05-01T08:51:54.697Z,250
2017-05-01T08:52:43.626Z,260
2017-05-01T08:53:31.842Z,275
2017-05-01T08:54:20.734Z,290
2017-05-01T08:55:10.020Z,295
2017-05-01T08:55:58.116Z,305
2017-05-01T08:56:46.791Z,305
2017-05-01T08:57:35.522Z,300
2017-05-01T08:58:24.274Z,315
2017-05-01T08:59:13.080Z,320
2017-05-01T09:00:01.665Z,345
2017-05-01T09:00:50.682Z,350
2017-05-01T09:01:38.755Z,330
2017-05-01T09:02:27.611Z,295
2017-05-01T09:03:15.857Z,270
2017-05-01T09:04:04.789Z,265
2017-05-01T09:04:54.346Z,255
2017-05-01T09:05:42.235Z,250
2017-05-01T09:06:31.128Z,240
2017-05-01T09:07:19.713Z,230
2017-05-01T09:08:07.927Z,220
2017-05-01T09:08:56.828Z,220
2017-05-01T09:09:45.050Z,225
2017-05-01T09:10:34.012Z,230
2017-05-01T09:11:22.437Z,225
2017-05-01T09:12:10.806Z,230
2017-05-01T09:13:00.337Z,240
2017-05-01T09:13:48.972Z,235
2017-05-01T09:14:37.643Z,225
2017-05-01T09:15:31.638Z,210
2017-05-01T09:16:31.578Z,210
2017-05-01T09:17:19.802Z,210
2017-05-01T09:18:08.869Z,220
2017-05-01T09:18:57.224Z,220
2017-05-01T09:19:45.776Z,240
2017-05-01T09:20:34.288Z,245
2017-05-01T09:21:22.962Z,245
2017-05-01T09:22:11.590Z,240
2017-05-01T09:23:00.662Z,250
2017-05-01T09:23:48.829Z,265
2017-05-01T09:24:37.338Z,290
2017-05-01T09:25:26.190Z,310
2017-05-01T09:26:15.121Z,315
2017-05-01T09:27:03.391Z,320
2017-05-01T09:27:51.909Z,345
2017-05-01T09:28:40.738Z,405
2017-05-01T09:29:29.271Z,445
2017-05-01T09:30:18.050Z,460
2017-05-01T09:31:06.572Z,465
2017-05-01T09:31:54.843Z,460
2017-05-01T09:32:43.770Z,455
2017-05-01T09:33:32.590Z,460
2017-05-01T09:34:20.854Z,450
2017-05-01T09:35:09.467Z,430
2017-05-01T09:35:58.286Z,425
2017-05-01T09:36:46.466Z,425
2017-05-01T09:37:35.453Z,430
2017-05-01T09:38:23.819Z,440
2017-05-01T09:39:12.199Z,435
2017-05-01T09:40:01.427Z,435
2017-05-01T09:40:49.762Z,450
2017-05-01T09:41:38.454Z,450
2017-05-01T09:42:26.922Z,450
2017-05-01T09:43:15.653Z,455
2017-05-01T09:44:04.473Z,465
2017-05-01T09:44:52.888Z,480
2017-05-01T09:45:41.532Z,495
2017-05-01T09:46:30.299Z,510
2017-05-01T09:47:18.786Z,520
2017-05-01T09:48:07.618Z,530
2017-05-01T09:48:56.618Z,550
2017-05-01T09:49:45.093Z,570
2017-05-01T09:50:33.782Z,545
2017-05-01T09:51:22.285Z,575
2017-05-01T09:52:10.696Z,580
2017-05-01T09:52:59.361Z,585
2017-05-01T09:53:47.905Z,570
2017-05-01T09:54:36.843Z,550
2017-05-01T09:55:25.208Z,515
2017-05-01T09:56:14.068Z,510
2017-05-01T09:57:02.491Z,495
2017-05-01T09:57:50.860Z,475
2017-05-01T09:58:39.894Z,460
2017-05-01T09:59:28.729Z,460
2017-05-01T10:00:19.979Z,455
2017-05-01T10:01:08.544Z,435
2017-05-01T10:01:56.730Z,425
2017-05-01T10:02:45.328Z,405
2017-05-01T10:03:33.840Z,375
2017-05-01T10:04:22.526Z,380
2017-05-01T10:05:11.623Z,375
2017-05-01T10:05:59.792Z,390
2017-05-01T10:06:48.410Z,385
2017-05-01T10:07:37.286Z,350
2017-05-01T10:08:26.064Z,350
2017-05-01T10:09:14.316Z,355
2017-05-01T10:10:02.978Z,340
2017-05-01T10:10:52.591Z,335
2017-05-01T10:11:41.366Z,380
2017-05-01T10:12:30.952Z,395
2017-05-01T10:13:18.453Z,395
2017-05-01T10:14:07.682Z,370
2017-05-01T10:14:55.850Z,355
2017-05-01T10:15:44.448Z,350
2017-05-01T10:16:33.264Z,355
2017-05-01T10:17:22.147Z,355
2017-05-01T10:18:10.322Z,330
2017-05-01T10:18:59.397Z,330
2017-05-01T10:19:47.541Z,325
2017-05-01T10:20:36.579Z,330
2017-05-01T10:21:25.332Z,345
2017-05-01T10:22:14.111Z,360
2017-05-01T10:23:01.966Z,385
2017-05-01T10:23:51.174Z,420
2017-05-01T10:24:39.396Z,430
2017-05-01T10:25:28.297Z,425
2017-05-01T10:26:17.190Z,405
2017-05-01T10:27:05.459Z,390
2017-05-01T10:27:54.105Z,385
2017-05-01T10:28:43.151Z,390
2017-05-01T10:29:31.367Z,405
2017-05-01T10:30:19.750Z,415
2017-05-01T10:31:08.666Z,415
2017-05-01T10:31:57.430Z,395
2017-05-01T10:32:46.308Z,380
2017-05-01T10:33:34.745Z,390
2017-05-01T10:34:23.302Z,410
2017-05-01T10:35:11.821Z,435
2017-05-01T10:36:00.466Z,430
2017-05-01T10:36:49.215Z,435
2017-05-01T10:37:38.232Z,450
2017-05-01T10:38:26.668Z,445
2017-05-01T10:39:15.287Z,430
2017-05-01T10:40:04.344Z,410
2017-05-01T10:40:52.654Z,410
2017-05-01T10:41:41.340Z,415
2017-05-01T10:42:30.275Z,400
2017-05-01T10:43:18.452Z,385
2017-05-01T10:44:07.230Z,380
2017-05-01T10:44:56.152Z,360
2017-05-01T10:45:44.484Z,350
2017-05-01T10:46:33.813Z,360
2017-05-01T10:47:22.197Z,380
2017-05-01T10:48:10.275Z,390
2017-05-01T10:48:59.262Z,355
2017-05-01T10:49:48.097Z,330
2017-05-01T10:50:36.918Z,350
2017-05-01T10:51:25.592Z,370
2017-05-01T10:52:13.991Z,390
2017-05-01T10:53:03.168Z,400
2017-05-01T10:53:51.538Z,395
2017-05-01T10:54:40.068Z,385
2017-05-01T10:55:28.560Z,340
2017-05-01T10:56:17.863Z,290
2017-05-01T10:57:07.558Z,265
2017-05-01T10:57:57.654Z,265
2017-05-01T10:58:46.156Z,290
2017-05-01T10:59:35.192Z,325
2017-05-01T11:00:23.739Z,350
2017-05-01T11:01:12.881Z,355
2017-05-01T11:02:00.973Z,365
2017-05-01T11:02:49.877Z,380
2017-05-01T11:03:38.588Z,400
2017-05-01T11:04:26.993Z,405
2017-05-01T11:05:16.204Z,415
2017-05-01T11:06:05.189Z,430
2017-05-01T11:06:53.713Z,430
2017-05-01T11:07:42.241Z,415
2017-05-01T11:08:30.610Z,445
2017-05-01T11:09:19.313Z,460
2017-05-01T11:10:09.152Z,450
2017-05-01T11:10:57.402Z,415
2017-05-01T11:11:46.275Z,425
2017-05-01T11:12:35.783Z,455
2017-05-01T11:13:24.433Z,475
2017-05-01T11:14:13.437Z,495
2017-05-01T11:15:01.866Z,510
2017-05-01T11:15:50.652Z,500
2017-05-01T11:16:39.849Z,475
2017-05-01T11:17:27.454Z,460
2017-05-01T11:18:15.798Z,465
2017-05-01T11:19:05.071Z,485
2017-05-01T11:19:53.239Z,500
2017-05-01T11:20:42.429Z,525
2017-05-01T11:21:22.425Z,540
2017-05-01T11:22:02.519Z,540
2017-05-01T11:22:43.077Z,545
2017-05-01T11:23:24.084Z,555
2017-05-01T11:24:04.491Z,560
2017-05-01T11:24:44.874Z,565
2017-05-01T11:25:25.997Z,565
2017-05-01T11:26:07.406Z,570
2017-05-01T11:26:47.760Z,570
2017-05-01T11:27:28.165Z,575
2017-05-01T11:28:08.517Z,590
2017-05-01T11:28:48.954Z,590
2017-05-01T11:29:29.366Z,575
2017-05-01T11:30:09.889Z,570
2017-05-01T11:30:50.388Z,565
2017-05-01T11:31:30.752Z,565
2017-05-01T11:32:11.139Z,555
2017-05-01T11:32:51.583Z,545
2017-05-01T11:33:31.995Z,525
2017-05-01T11:34:12.376Z,525
2017-05-01T11:34:52.813Z,530
2017-05-01T11:35:34.385Z,535
2017-05-01T11:36:14.754Z,540
2017-05-01T11:36:56.577Z,555
2017-05-01T11:37:37.044Z,560
2017-05-01T11:38:17.398Z,570
2017-05-01T11:38:57.828Z,575
2017-05-01T11:39:38.270Z,580
2017-05-01T11:40:18.748Z,580
2017-05-01T11:40:59.131Z,580
2017-05-01T11:41:40.399Z,580
2017-05-01T11:42:20.592Z,585
2017-05-01T11:43:01.772Z,590
2017-05-01T11:43:42.146Z,585
2017-05-01T11:44:22.716Z,590
2017-05-01T11:45:03.547Z,590
2017-05-01T11:45:44.376Z,590
2017-05-01T11:46:25.277Z,585
2017-05-01T11:47:05.625Z,580
2017-05-01T11:47:46.061Z,575
2017-05-01T11:48:26.582Z,565
2017-05-01T11:49:06.935Z,560
2017-05-01T11:49:47.260Z,560
2017-05-01T11:50:27.706Z,560
2017-05-01T11:51:08.179Z,555
2017-05-01T11:51:48.553Z,555
2017-05-01T11:52:28.984Z,550
2017-05-01T11:53:09.490Z,550
2017-05-01T11:53:49.854Z,555
2017-05-01T11:54:30.230Z,560
2017-05-01T11:55:10.673Z,565
2017-05-01T11:55:52.729Z,580
2017-05-01T11:56:33.204Z,585
2017-05-01T11:57:13.652Z,600
2017-05-01T11:57:53.993Z,605
2017-05-01T11:58:34.709Z,610
2017-05-01T11:59:15.113Z,600
2017-05-01T11:59:55.498Z,585
2017-05-01T12:00:35.885Z,590
2017-05-01T12:01:16.895Z,595
2017-05-01T12:01:57.336Z,595
2017-05-01T12:02:37.765Z,590
2017-05-01T12:03:18.194Z,590
2017-05-01T12:03:58.621Z,590
2017-05-01T12:04:39.046Z,575
2017-05-01T12:05:19.399Z,550
2017-05-01T12:06:00.166Z,550
2017-05-01T12:06:40.585Z,550
2017-05-01T12:07:20.989Z,565
2017-05-01T12:08:01.354Z,565
2017-05-01T12:08:41.778Z,555
2017-05-01T12:09:22.175Z,545
2017-05-01T12:10:02.608Z,535
2017-05-01T12:10:43.009Z,520
2017-05-01T12:11:23.939Z,505
2017-05-01T12:12:03.790Z,505
2017-05-01T12:12:44.806Z,485
2017-05-01T12:13:25.157Z,455
2017-05-01T12:14:05.854Z,410
2017-05-01T12:14:46.281Z,360
2017-05-01T12:15:26.954Z,375
2017-05-01T12:16:07.617Z,430
2017-05-01T12:16:47.930Z,475
2017-05-01T12:17:28.342Z,480
2017-05-01T12:18:09.511Z,480
2017-05-01T12:18:49.886Z,480
2017-05-01T12:19:30.342Z,490
2017-05-01T12:20:10.952Z,505
2017-05-01T12:20:51.385Z,510
2017-05-01T12:21:32.417Z,505
2017-05-01T12:22:12.914Z,485
2017-05-01T12:22:53.669Z,455
2017-05-01T12:23:34.115Z,425
2017-05-01T12:24:15.290Z,425
2017-05-01T12:24:55.641Z,415
2017-05-01T12:25:36.072Z,390
2017-05-01T12:26:16.570Z,375
2017-05-01T12:26:57.029Z,375
2017-05-01T12:27:38.054Z,380
2017-05-01T12:28:18.444Z,385
2017-05-01T12:28:58.815Z,415
2017-05-01T12:29:39.228Z,460
2017-05-01T12:30:19.667Z,500
2017-05-01T12:31:00.049Z,520
2017-05-01T12:31:40.505Z,540
2017-05-01T12:32:20.959Z,555
2017-05-01T12:33:01.397Z,570
2017-05-01T12:33:42.159Z,585
2017-05-01T12:34:22.516Z,585
2017-05-01T12:35:03.015Z,585
2017-05-01T12:35:43.470Z,585
2017-05-01T12:36:23.764Z,595
2017-05-01T12:37:04.192Z,590
2017-05-01T12:37:45.147Z,580
2017-05-01T12:38:25.715Z,580
2017-05-01T12:39:06.153Z,595
2017-05-01T12:39:46.580Z,615
2017-05-01T12:40:26.958Z,640
2017-05-01T12:41:07.430Z,670
2017-05-01T12:41:47.820Z,695
2017-05-01T12:42:28.247Z,715
2017-05-01T12:43:08.608Z,735
2017-05-01T12:43:49.029Z,750
2017-05-01T12:44:29.460Z,770
2017-05-01T12:45:09.884Z,790
2017-05-01T12:45:50.237Z,790
2017-05-01T12:46:30.721Z,770
2017-05-01T12:47:11.241Z,755
2017-05-01T12:47:51.684Z,720
2017-05-01T12:48:32.085Z,685
2017-05-01T12:49:14.020Z,640
2017-05-01T12:52:02.436Z,500
2017-05-01T12:52:50.957Z,490
2017-05-01T12:53:39.404Z,485
2017-05-01T12:54:30.848Z,470
2017-05-01T12:55:17.343Z,455
2017-05-01T12:56:05.858Z,425
2017-05-01T12:56:54.470Z,390
2017-05-01T12:57:42.985Z,340
2017-05-01T12:58:33.980Z,305
2017-05-01T12:59:23.313Z,295
2017-05-01T13:00:12.280Z,315
2017-05-01T13:01:01.062Z,365
2017-05-01T13:01:52.090Z,425
2017-05-01T13:02:41.312Z,510
2017-05-01T13:03:30.275Z,580
2017-05-01T13:04:18.542Z,605
2017-05-01T13:05:07.406Z,590
2017-05-01T13:05:55.909Z,555
2017-05-01T13:06:44.474Z,525
2017-05-01T13:07:32.968Z,510
2017-05-01T13:08:21.557Z,505
2017-05-01T13:09:10.846Z,500
2017-05-01T13:09:59.174Z,490
2017-05-01T13:10:47.537Z,470
2017-05-01T13:11:36.072Z,460
2017-05-01T13:12:24.876Z,455
2017-05-01T13:13:13.683Z,460
2017-05-01T13:14:01.979Z,465
2017-05-01T13:14:50.554Z,460
2017-05-01T13:15:39.742Z,450
2017-05-01T13:16:28.224Z,425
2017-05-01T13:17:16.537Z,390
2017-05-01T13:18:05.583Z,375
2017-05-01T13:18:54.438Z,355
2017-05-01T13:19:42.895Z,340
2017-05-01T13:20:31.763Z,320
2017-05-01T13:21:20.259Z,320
2017-05-01T13:22:09.413Z,330
2017-05-01T13:22:59.989Z,315
2017-05-01T13:23:47.759Z,265
2017-05-01T13:31:04.986Z,295
2017-05-01T13:31:53.868Z,260
2017-05-01T13:32:42.402Z,205
2017-05-01T13:33:32.092Z,150
2017-05-01T13:34:20.372Z,140
2017-05-01T13:35:09.240Z,150
2017-05-01T13:35:58.191Z,165
2017-05-01T13:36:46.546Z,190
2017-05-01T13:37:35.593Z,210
2017-05-01T13:38:24.250Z,215
2017-05-01T13:39:12.795Z,230
2017-05-01T13:40:01.209Z,265
2017-05-01T13:40:50.151Z,310
2017-05-01T13:41:38.771Z,345
2017-05-01T13:42:27.447Z,385
2017-05-01T13:43:15.787Z,415
2017-05-01T13:44:04.754Z,440
2017-05-01T13:44:53.383Z,460
2017-05-01T13:45:41.749Z,470
2017-05-01T13:46:30.460Z,480
2017-05-01T13:47:19.236Z,475
2017-05-01T13:48:07.857Z,470
2017-05-01T13:48:56.471Z,475
2017-05-01T13:49:45.068Z,485
2017-05-01T13:50:33.907Z,485
2017-05-01T13:51:22.594Z,480
2017-05-01T13:52:10.896Z,460
2017-05-01T13:52:59.406Z,425
2017-05-01T13:53:48.719Z,390
2017-05-01T13:54:37.205Z,370
2017-05-01T13:55:25.393Z,355
2017-05-01T13:56:14.280Z,370
2017-05-01T13:57:02.809Z,400
2017-05-01T13:57:51.371Z,425
2017-05-01T13:58:39.777Z,435
2017-05-01T13:59:28.653Z,440
2017-05-01T14:00:16.860Z,440
2017-05-01T14:01:05.501Z,445
2017-05-01T14:01:53.974Z,415
2017-05-01T14:02:42.679Z,355
2017-05-01T14:03:31.158Z,360
2017-05-01T14:04:19.811Z,385
2017-05-01T14:05:08.343Z,370
2017-05-01T14:05:56.960Z,355
2017-05-01T14:06:45.722Z,345
2017-05-01T14:07:34.376Z,340
2017-05-01T14:08:22.914Z,330
2017-05-01T14:09:11.399Z,330
2017-05-01T14:10:00.308Z,335
2017-05-01T14:10:48.725Z,345
2017-05-01T14:11:37.757Z,350
2017-05-01T14:12:25.889Z,365
2017-05-01T14:13:14.711Z,360
2017-05-01T14:14:03.621Z,365
2017-05-01T14:14:55.735Z,365
2017-05-01T14:15:40.818Z,365
2017-05-01T14:16:29.643Z,360
2017-05-01T14:17:18.249Z,355
2017-05-01T14:18:07.759Z,355
2017-05-01T14:18:56.949Z,350
2017-05-01T14:19:45.357Z,350
2017-05-01T14:20:35.263Z,345
2017-05-01T14:21:23.738Z,345
2017-05-01T14:22:12.270Z,345
2017-05-01T14:23:01.274Z,345
2017-05-01T14:23:49.327Z,350
2017-05-01T14:24:38.143Z,350
2017-05-01T14:25:26.725Z,350
2017-05-01T14:26:16.107Z,355
2017-05-01T14:27:04.498Z,360
2017-05-01T14:27:53.113Z,370
2017-05-01T14:28:41.945Z,385
2017-05-01T14:29:30.765Z,400
2017-05-01T14:30:19.135Z,405
2017-05-01T14:31:08.102Z,420
2017-05-01T14:31:57.253Z,430
2017-05-01T14:32:46.486Z,440
2017-05-01T14:33:34.983Z,455
2017-05-01T14:34:16.274Z,475
2017-05-01T14:34:56.770Z,490
2017-05-01T14:35:37.161Z,510
2017-05-01T14:36:18.263Z,530
2017-05-01T14:36:58.769Z,545
2017-05-01T14:37:39.634Z,565
2017-05-01T14:38:20.076Z,585
2017-05-01T14:39:01.047Z,605
2017-05-01T14:39:41.414Z,615
2017-05-01T14:40:23.018Z,625
2017-05-01T14:41:08.302Z,625
2017-05-01T14:41:50.743Z,625
2017-05-01T14:45:46.764Z,560
2017-05-01T14:48:08.047Z,535
2017-05-01T14:48:56.613Z,530
2017-05-01T14:49:45.568Z,520
2017-05-01T14:50:33.985Z,510
2017-05-01T14:51:24.477Z,495
2017-05-01T14:55:22.736Z,425
2017-05-01T14:56:11.028Z,415
2017-05-01T14:57:00.328Z,400
2017-05-01T14:57:48.975Z,395
2017-05-01T14:58:37.209Z,400
2017-05-01T15:02:32.501Z,370
2017-05-01T15:03:20.461Z,370
2017-05-01T15:04:09.413Z,370
2017-05-01T15:04:58.442Z,375
2017-05-01T15:05:46.763Z,365
2017-05-01T15:06:36.815Z,340
2017-05-01T15:07:26.503Z,325
2017-05-01T15:11:42.808Z,310
2017-05-01T15:12:31.521Z,345
2017-05-01T15:13:20.163Z,375
2017-05-01T15:14:09.207Z,395
2017-05-01T15:14:57.278Z,405
2017-05-01T15:15:46.713Z,415
2017-05-01T15:16:35.014Z,415
2017-05-01T15:17:26.668Z,415
2017-05-01T15:18:12.516Z,420
2017-05-01T15:19:01.220Z,425
2017-05-01T15:19:52.281Z,425
2017-05-01T15:20:40.814Z,420
2017-05-01T15:21:30.152Z,420
2017-05-01T15:22:19.030Z,415
2017-05-01T15:23:08.055Z,405
2017-05-01T15:24:00.630Z,400
2017-05-01T15:24:48.187Z,400
2017-05-01T15:25:36.801Z,400
2017-05-01T15:26:25.619Z,400
2017-05-01T15:27:13.822Z,400
2017-05-01T15:28:02.703Z,395
2017-05-01T15:28:51.666Z,390
2017-05-01T15:29:40.039Z,385
2017-05-01T15:30:28.371Z,380
2017-05-01T15:31:17.178Z,380
2017-05-01T15:32:05.653Z,385
2017-05-01T15:32:54.808Z,400
2017-05-01T15:33:43.922Z,405
2017-05-01T15:34:31.846Z,410
2017-05-01T15:35:20.724Z,420
2017-05-01T15:36:09.692Z,425
2017-05-01T15:36:57.642Z,425
2017-05-01T15:37:48.377Z,420
2017-05-01T15:38:36.432Z,415
2017-05-01T15:39:25.291Z,410
2017-05-01T15:40:14.862Z,405
2017-05-01T15:41:05.450Z,400
2017-05-01T15:41:53.782Z,395
2017-05-01T15:42:43.347Z,395
2017-05-01T15:43:32.277Z,390
2017-05-01T15:44:20.892Z,385
2017-05-01T15:45:10.623Z,375
2017-05-01T15:45:58.204Z,375
2017-05-01T15:46:47.210Z,370
2017-05-01T15:47:35.725Z,365
2017-05-01T15:48:24.625Z,365
2017-05-01T15:49:13.641Z,360
2017-05-01T15:50:03.322Z,350
2017-05-01T15:50:50.696Z,335
2017-05-01T15:51:39.587Z,320
2017-05-01T15:52:27.938Z,315
2017-05-01T15:53:16.772Z,315
2017-05-01T15:54:05.614Z,325
2017-05-01T15:54:54.030Z,330
2017-05-01T15:55:42.781Z,340
2017-05-01T15:56:31.223Z,335
2017-05-01T15:57:21.708Z,340